TimeEDT,TemperatureF,Dew PointF,Humidity,Sea Level PressureIn,VisibilityMPH,Wind Direction,Wind SpeedMPH,Gust SpeedMPH,PrecipitationIn,Events,Conditions,WindDirDegrees,DateUTC
1:55 AM,35.6,35.6,100,30.46,10.0,NNE,4.6,-,N/A,,Unknown,20,2012-10-13 05:55:00
2:15 AM,35.6,35.6,100,30.46,10.0,NE,3.5,-,N/A,,Unknown,40,2012-10-13 06:15:00
2:35 AM,35.6,35.6,100,30.46,10.0,NNE,4.6,-,N/A,,Unknown,30,2012-10-13 06:35:00
2:55 AM,35.6,35.6,100,30.46,10.0,NNE,3.5,-,N/A,,Unknown,30,2012-10-13 06:55:00
3:15 AM,35.6,35.6,100,30.46,10.0,North,3.5,-,N/A,,Unknown,10,2012-10-13 07:15:00
3:35 AM,35.6,35.6,100,30.46,10.0,North,3.5,-,N/A,,Unknown,10,2012-10-13 07:35:00
3:55 AM,35.6,35.6,100,30.46,10.0,North,3.5,-,N/A,,Unknown,360,2012-10-13 07:55:00
4:15 AM,35.6,35.6,100,30.47,10.0,North,4.6,-,N/A,,Unknown,10,2012-10-13 08:15:00
4:35 AM,35.6,35.6,100,30.47,10.0,North,3.5,-,N/A,,Unknown,360,2012-10-13 08:35:00
4:55 AM,35.6,35.6,100,30.47,10.0,North,3.5,-,N/A,,Unknown,360,2012-10-13 08:55:00
5:15 AM,35.6,33.8,93,30.48,10.0,Calm,Calm,-,N/A,,Unknown,0,2012-10-13 09:15:00
5:35 AM,35.6,33.8,93,30.50,10.0,NNE,4.6,-,N/A,,Unknown,30,2012-10-13 09:35:00
5:55 AM,35.6,33.8,93,30.50,10.0,North,4.6,-,N/A,,Unknown,360,2012-10-13 09:55:00
6:15 AM,35.6,33.8,93,30.51,10.0,Calm,Calm,-,N/A,,Unknown,0,2012-10-13 10:15:00
6:35 AM,35.6,33.8,93,30.51,10.0,North,3.5,-,N/A,,Unknown,10,2012-10-13 10:35:00
6:55 AM,33.8,33.8,100,30.52,10.0,NNE,4.6,-,N/A,,Unknown,20,2012-10-13 10:55:00
7:15 AM,33.8,33.8,100,30.52,10.0,NNE,3.5,-,N/A,,Unknown,20,2012-10-13 11:15:00
7:35 AM,33.8,33.8,100,30.52,10.0,Calm,Calm,-,N/A,,Unknown,0,2012-10-13 11:35:00
7:55 AM,33.8,33.8,100,30.52,10.0,Calm,Calm,-,N/A,,Unknown,0,2012-10-13 11:55:00
8:15 AM,35.6,33.8,93,30.53,10.0,Calm,Calm,-,N/A,,Unknown,0,2012-10-13 12:15:00
8:35 AM,37.4,35.6,93,30.54,10.0,Calm,Calm,-,N/A,,Unknown,0,2012-10-13 12:35:00
8:55 AM,41.0,37.4,87,30.54,10.0,Calm,Calm,-,N/A,,Unknown,0,2012-10-13 12:55:00
9:15 AM,42.8,35.6,76,30.54,10.0,North,3.5,-,N/A,,Unknown,10,2012-10-13 13:15:00
9:35 AM,44.6,35.6,71,30.54,10.0,Calm,Calm,-,N/A,,Unknown,0,2012-10-13 13:35:00
9:55 AM,46.4,35.6,66,30.54,10.0,Calm,Calm,-,N/A,,Unknown,0,2012-10-13 13:55:00
10:35 AM,48.2,35.6,62,30.54,10.0,Calm,Calm,-,N/A,,Unknown,0,2012-10-13 14:35:00
10:55 AM,50.0,35.6,58,30.53,10.0,Calm,Calm,-,N/A,,Unknown,0,2012-10-13 14:55:00
11:15 AM,51.8,35.6,54,30.52,10.0,South,4.6,-,N/A,,Unknown,170,2012-10-13 15:15:00
11:35 AM,53.6,35.6,51,30.52,10.0,ESE,3.5,-,N/A,,Unknown,120,2012-10-13 15:35:00
11:55 AM,53.6,35.6,51,30.52,10.0,SSE,4.6,-,N/A,,Unknown,150,2012-10-13 15:55:00
12:15 PM,55.4,33.8,44,30.50,10.0,SSE,4.6,-,N/A,,Unknown,160,2012-10-13 16:15:00
12:35 PM,55.4,33.8,44,30.48,10.0,South,3.5,-,N/A,,Unknown,190,2012-10-13 16:35:00
12:55 PM,57.2,33.8,41,30.47,10.0,South,6.9,-,N/A,,Unknown,180,2012-10-13 16:55:00
1:15 PM,57.2,35.6,44,30.45,10.0,SSE,6.9,-,N/A,,Unknown,160,2012-10-13 17:15:00
1:35 PM,59.0,33.8,39,30.44,10.0,South,10.4,21.9,N/A,,Unknown,170,2012-10-13 17:35:00
2:15 PM,60.8,35.6,39,30.41,10.0,SSW,5.8,-,N/A,,Unknown,210,2012-10-13 18:15:00
2:35 PM,60.8,35.6,39,30.40,10.0,SSW,8.1,-,N/A,,Unknown,200,2012-10-13 18:35:00
2:55 PM,60.8,35.6,39,30.40,10.0,South,9.2,-,N/A,,Unknown,180,2012-10-13 18:55:00
3:15 PM,60.8,37.4,42,30.39,10.0,SSW,8.1,18.4,N/A,,Unknown,200,2012-10-13 19:15:00
3:35 PM,60.8,37.4,42,30.39,10.0,SW,9.2,16.1,N/A,,Unknown,230,2012-10-13 19:35:00
3:55 PM,60.8,37.4,42,30.38,10.0,SW,8.1,-,N/A,,Unknown,230,2012-10-13 19:55:00
4:15 PM,62.6,37.4,39,30.38,10.0,SSW,5.8,-,N/A,,Unknown,200,2012-10-13 20:15:00
4:35 PM,62.6,37.4,39,30.37,10.0,South,8.1,-,N/A,,Unknown,190,2012-10-13 20:35:00
4:55 PM,60.8,37.4,42,30.37,10.0,South,5.8,-,N/A,,Unknown,170,2012-10-13 20:55:00
5:15 PM,60.8,37.4,42,30.37,10.0,South,4.6,-,N/A,,Unknown,180,2012-10-13 21:15:00
5:35 PM,60.8,37.4,42,30.36,10.0,South,4.6,-,N/A,,Clear,170,2012-10-13 21:35:00
5:55 PM,60.8,37.4,42,30.36,10.0,South,3.5,-,N/A,,Clear,180,2012-10-13 21:55:00
6:15 PM,57.2,39.2,51,30.36,10.0,Calm,Calm,-,N/A,,Clear,0,2012-10-13 22:15:00
6:35 PM,55.4,42.8,63,30.35,10.0,Calm,Calm,-,N/A,,Clear,0,2012-10-13 22:35:00
6:55 PM,51.8,42.8,71,30.35,10.0,Calm,Calm,-,N/A,,Clear,0,2012-10-13 22:55:00
7:15 PM,48.2,42.8,82,30.35,10.0,Calm,Calm,-,N/A,,Clear,0,2012-10-13 23:15:00
7:35 PM,48.2,42.8,82,30.35,10.0,Calm,Calm,-,N/A,,Clear,0,2012-10-13 23:35:00
8:15 PM,46.4,42.8,87,30.36,10.0,Calm,Calm,-,N/A,,Clear,0,2012-10-14 00:15:00
8:35 PM,44.6,42.8,93,30.35,10.0,Calm,Calm,-,N/A,,Clear,0,2012-10-14 00:35:00
8:55 PM,44.6,42.8,93,30.35,10.0,Calm,Calm,-,N/A,,Clear,0,2012-10-14 00:55:00
9:15 PM,44.6,42.8,93,30.35,10.0,Calm,Calm,-,N/A,,Clear,0,2012-10-14 01:15:00
9:35 PM,42.8,42.8,100,30.35,10.0,Calm,Calm,-,N/A,,Clear,0,2012-10-14 01:35:00
9:55 PM,42.8,42.8,100,30.35,10.0,Calm,Calm,-,N/A,,Clear,0,2012-10-14 01:55:00
10:15 PM,41.0,41.0,100,30.34,10.0,Calm,Calm,-,N/A,,Clear,0,2012-10-14 02:15:00
10:35 PM,42.8,42.8,100,30.34,10.0,Calm,Calm,-,N/A,,Clear,0,2012-10-14 02:35:00
10:55 PM,42.8,42.8,100,30.33,4.0,Calm,Calm,-,N/A,,Clear,0,2012-10-14 02:55:00
11:15 PM,42.8,42.8,100,30.33,10.0,Calm,Calm,-,N/A,,Clear,0,2012-10-14 03:15:00
11:55 PM,42.8,42.8,100,30.31,10.0,Calm,Calm,-,N/A,,Clear,0,2012-10-14 03:55:00